Página principal
METAR-TAF:

METAR-TAF

Aeroportos :

Funchal, Madeira, Portugal

Aeroporto da Madeira

latitude: 32-41-52N, longitude: 016-46-28W, altura: 59 m

Observação actual do tempo

O boletim foi feito há 21 minutos, às 12:30 UTC
Vento 7 kt de nordeste, variando entre nor-nordeste e este
Temperatura 21°C
Humidade 78%
Pressão 1020 hPa
Visibilidade 10 km ou mais
sem nuvens abaixo de 1500 metros e sem cumulonimbus

METAR: LPMA 151230Z 05007KT 020V080 CAVOK 21/17 Q1020

Hora: 13:51 (12:51 UTC)

Previsão

O boletim foi feito há 1 hora e 51 minutos, às 11:00 UTC
Previsão válida de 15 às 12 UTC a 16 às 12 UTC
Vento 10 kt de es-nordeste
Visibilidade 10 km ou mais
Poucas nuvensa uma altura de 1500 ft
Tornando-se
de 15 às 22 UTC a 15 às 24 UTC
Vento 8 kt de norte
Tornando-se
de 16 às 10 UTC a 16 às 12 UTC
Vento 7 kt de es-nordeste

TAF: LPMA 151100Z 1512/1612 06010KT 9999 FEW015 BECMG 1522/1524 01008KT BECMG 1610/1612 06007KT

Observações e previsões do tempo de mais de 4000 aeroportos (mensagens METAR e TAF).

As estações disponíveis são os pontos amarelos e vermelhos sobre o mapa.

Mova o rato sobre o mapa para ver o nome da estação.

Depois clique no ponto para visualizar as observações e previsões meteorológicas.

Para alterar o mapa : clique nos botões verdes com uma cruz preta para aumentar o zoom; no botão verde com uma pitada de zoom; ou nas setas verdes para mapas adjacentes.


METAR-TAF: